Guabiruba, Brazil
Current Conditions -  °F | °C
As of 6:00 PM on Monday 20 Oct 2014 (Local Time) from SBNF Reporting Station
Overcast Overcast  
Wind Chill: 72°   Ceiling: 4000
Heat Index: 72°   Visibility: 6mi
Dew Point: 54°   Wind: 14mph
Humidity: 53%   Direction: 150°SSE
Pressure: 30.06"   Gusts: 25mph
Location:  27.09°S, 48.98°W
Report Text: SBNF 202100Z 15012G22KT 9999 OVC040 22/12 Q1018
Loading
Personal Weather Stations






























Interactive Weather Map
Tropical Storm Tracking
New forecast layout! Learn more

10-Day Weather Forecast

Advertisements
Track Severe Weather on mobile